createdAt,value
2023-09-17T00:01:55.464Z,98564.81
2023-09-17T00:06:57.457Z,98553.63
2023-09-17T00:11:59.561Z,98555.06
2023-09-17T00:17:01.491Z,98551.22
2023-09-17T00:22:04.383Z,98539.03
2023-09-17T00:27:06.554Z,98551.38
2023-09-17T00:32:08.635Z,98538.09
2023-09-17T00:37:13.041Z,98539.22
2023-09-17T00:42:17.284Z,98522.78
2023-09-17T00:47:19.102Z,98525.81
2023-09-17T00:52:22.278Z,98516.63
2023-09-17T00:57:24.391Z,98512.59
2023-09-17T01:02:27.924Z,98515.22
2023-09-17T01:07:30.043Z,98515.88
2023-09-17T01:12:32.874Z,98517.63
2023-09-17T01:17:35.865Z,98511.38
2023-09-17T01:22:45.483Z,98503.44
2023-09-17T01:27:47.484Z,98503.66
2023-09-17T01:32:49.358Z,98506.97
2023-09-17T01:37:56.211Z,98504.97
2023-09-17T01:42:59.198Z,98502.59
2023-09-17T01:48:02.356Z,98507.13
2023-09-17T01:53:05.103Z,98508.19
2023-09-17T01:58:07.057Z,98510.59
2023-09-17T02:03:09.855Z,98515.44
2023-09-17T02:08:11.684Z,98513.81
2023-09-17T02:13:13.523Z,98509.06
2023-09-17T02:18:15.611Z,98503.66
2023-09-17T02:23:18.410Z,98504.81
2023-09-17T02:28:20.311Z,98511.97
2023-09-17T02:33:22.257Z,98509.69
2023-09-17T02:38:24.075Z,98507.69
2023-09-17T02:43:26.237Z,98515.03
2023-09-17T02:48:28.068Z,98519.31
2023-09-17T02:53:29.909Z,98519.84
2023-09-17T02:58:31.709Z,98509.56
2023-09-17T03:03:33.526Z,98512.63
2023-09-17T03:08:35.531Z,98510.44
2023-09-17T03:13:37.665Z,98514.78
2023-09-17T03:18:40.083Z,98512.34
2023-09-17T03:23:41.814Z,98505.69
2023-09-17T03:28:43.604Z,98499.69
2023-09-17T03:33:45.540Z,98507.97
2023-09-17T03:38:47.421Z,98510.19
2023-09-17T03:43:49.591Z,98517.34
2023-09-17T03:48:51.649Z,98523.03
2023-09-17T03:53:53.730Z,98531.09
2023-09-17T03:58:56.064Z,98522.97
2023-09-17T04:03:58.026Z,98521.84
2023-09-17T04:09:00.498Z,98528.41
2023-09-17T04:14:02.299Z,98525.56
2023-09-17T04:19:04.348Z,98532.06
2023-09-17T04:24:06.557Z,98537.56
2023-09-17T04:29:11.719Z,98541.91
2023-09-17T04:34:16.809Z,98551.22
2023-09-17T04:39:18.580Z,98537.44
2023-09-17T04:44:20.331Z,98539.56
2023-09-17T04:49:22.102Z,98545.53
2023-09-17T04:54:25.058Z,98553.47
2023-09-17T04:59:29.008Z,98567.50
2023-09-17T05:04:30.834Z,98567.63
2023-09-17T05:09:32.653Z,98559.97
2023-09-17T05:14:34.385Z,98574.00
2023-09-17T05:19:36.722Z,98578.06
2023-09-17T05:24:39.102Z,98582.84
2023-09-17T05:29:42.146Z,98587.56
2023-09-17T05:34:45.570Z,98589.59
2023-09-17T05:39:47.393Z,98585.16
2023-09-17T05:44:49.259Z,98599.53
2023-09-17T05:49:51.148Z,98591.69
2023-09-17T05:54:53.104Z,98586.06
2023-09-17T05:59:54.899Z,98577.47
2023-09-17T06:04:59.033Z,98601.75
2023-09-17T06:10:02.523Z,98599.97
2023-09-17T06:15:05.655Z,98610.59
2023-09-17T06:20:08.165Z,98596.34
2023-09-17T06:25:10.020Z,98599.38
2023-09-17T06:30:12.592Z,98601.94
2023-09-17T06:35:14.821Z,98595.56
2023-09-17T06:40:17.054Z,98595.63
2023-09-17T06:45:19.455Z,98600.03
2023-09-17T06:50:21.276Z,98602.06
2023-09-17T06:55:23.113Z,98604.78
2023-09-17T07:00:24.935Z,98612.56
2023-09-17T07:05:26.885Z,98616.31
2023-09-17T07:10:28.823Z,98624.88
2023-09-17T07:15:31.568Z,98628.47
2023-09-17T07:20:33.392Z,98620.16
2023-09-17T07:25:35.256Z,98620.63
2023-09-17T07:30:38.176Z,98622.34
2023-09-17T07:35:40.762Z,98619.97
2023-09-17T07:40:42.680Z,98623.28
2023-09-17T07:45:44.509Z,98629.53
2023-09-17T07:50:55.391Z,98622.34
2023-09-17T07:55:57.890Z,98627.88
2023-09-17T08:00:59.762Z,98629.53
2023-09-17T08:06:01.611Z,98631.25
2023-09-17T08:11:04.911Z,98641.44
2023-09-17T08:16:06.820Z,98640.09
2023-09-17T08:21:08.603Z,98634.31
2023-09-17T08:26:12.143Z,98645.91
2023-09-17T08:31:13.903Z,98642.59
2023-09-17T08:36:16.293Z,98636.97
2023-09-17T08:41:24.182Z,98633.00
2023-09-17T08:46:27.903Z,98636.72
2023-09-17T08:51:34.453Z,98637.72
2023-09-17T08:56:40.156Z,98641.47
2023-09-17T09:01:45.888Z,98636.59
2023-09-17T09:06:48.944Z,98637.56
2023-09-17T09:11:51.078Z,98629.44
2023-09-17T09:16:53.570Z,98622.34
2023-09-17T09:21:55.517Z,98619.94
2023-09-17T09:26:59.808Z,98620.28
2023-09-17T09:32:01.924Z,98623.44
2023-09-17T09:37:11.206Z,98619.63
2023-09-17T09:42:14.530Z,98613.31
2023-09-17T09:47:16.454Z,98623.34
2023-09-17T09:52:19.394Z,98626.91
2023-09-17T09:57:21.628Z,98619.13
2023-09-17T10:02:23.573Z,98621.06
2023-09-17T10:07:26.711Z,98628.50
2023-09-17T10:12:28.847Z,98624.66
2023-09-17T10:17:31.642Z,98629.28
2023-09-17T10:22:36.657Z,98612.31
2023-09-17T10:27:39.206Z,98607.72
2023-09-17T10:32:42.948Z,98601.44
2023-09-17T10:37:47.512Z,98610.47
2023-09-17T10:42:52.343Z,98603.34
2023-09-17T10:47:59.111Z,98594.38
2023-09-17T10:53:01.014Z,98599.19
2023-09-17T10:58:39.573Z,98599.94
2023-09-17T11:03:46.249Z,98606.06
2023-09-17T11:08:48.546Z,98595.63
2023-09-17T11:13:52.468Z,98596.38
2023-09-17T11:19:09.828Z,98593.03
2023-09-17T11:24:13.844Z,98593.88
2023-09-17T11:29:18.741Z,98591.75
2023-09-17T11:34:22.285Z,98602.59
2023-09-17T11:39:25.438Z,98589.56
2023-09-17T11:44:27.942Z,98595.53
2023-09-17T11:49:30.447Z,98593.78
2023-09-17T11:54:35.486Z,98584.56
2023-09-17T11:59:41.186Z,98574.75
2023-09-17T12:04:45.396Z,98584.81
2023-09-17T12:09:48.941Z,98583.00
2023-09-17T12:14:51.555Z,98577.84
2023-09-17T12:20:02.256Z,98583.28
2023-09-17T12:25:09.803Z,98567.06
2023-09-17T12:30:12.692Z,98567.53
2023-09-17T12:35:15.004Z,98561.97
2023-09-17T12:40:17.082Z,98563.44
2023-09-17T12:45:20.818Z,98564.94
2023-09-17T12:50:23.282Z,98564.78
2023-09-17T12:55:28.196Z,98557.47
2023-09-17T13:00:30.813Z,98549.91
2023-09-17T13:05:32.730Z,98548.47
2023-09-17T13:10:35.769Z,98530.81
2023-09-17T13:15:37.726Z,98522.53
2023-09-17T13:20:39.953Z,98519.09
2023-09-17T13:25:42.685Z,98512.13
2023-09-17T13:30:45.039Z,98513.72
2023-09-17T13:35:52.567Z,98504.34
2023-09-17T13:40:55.563Z,98507.84
2023-09-17T13:46:01.067Z,98509.28
2023-09-17T13:51:03.171Z,98504.19
2023-09-17T13:56:06.026Z,98507.81
2023-09-17T14:01:09.062Z,98513.94
2023-09-17T14:06:11.596Z,98510.66
2023-09-17T14:11:13.977Z,98500.06
2023-09-17T14:16:16.516Z,98499.09
2023-09-17T14:21:18.805Z,98499.38
2023-09-17T14:26:22.193Z,98497.66
2023-09-17T14:31:24.649Z,98503.75
2023-09-17T14:36:26.964Z,98500.72
2023-09-17T14:41:31.281Z,98490.97
2023-09-17T14:46:35.844Z,98485.22
2023-09-17T14:51:38.178Z,98492.47
2023-09-17T14:56:40.197Z,98492.06
2023-09-17T15:01:59.074Z,98489.66
2023-09-17T15:07:03.200Z,98495.72
2023-09-17T15:12:05.647Z,98494.34
2023-09-17T15:17:07.867Z,98493.66
2023-09-17T15:22:10.211Z,98495.28
2023-09-17T15:27:13.246Z,98490.63
2023-09-17T15:32:15.554Z,98494.63
2023-09-17T15:37:18.037Z,98500.56
2023-09-17T15:42:20.885Z,98495.88
2023-09-17T15:47:23.508Z,98493.47
2023-09-17T15:52:25.660Z,98488.34
2023-09-17T15:57:28.419Z,98493.47
2023-09-17T16:02:31.956Z,98487.16
2023-09-17T16:07:35.851Z,98490.41
2023-09-17T16:12:38.346Z,98489.75
2023-09-17T16:17:42.690Z,98485.75
2023-09-17T16:22:45.271Z,98488.84
2023-09-17T16:27:49.073Z,98500.59
2023-09-17T16:32:53.121Z,98497.06
2023-09-17T16:37:55.463Z,98502.25
2023-09-17T16:43:08.444Z,98506.63
2023-09-17T16:48:12.612Z,98504.31
2023-09-17T16:53:15.173Z,98500.28
2023-09-17T16:58:20.298Z,98514.44
2023-09-17T17:03:22.893Z,98509.88
2023-09-17T17:08:27.037Z,98505.44
2023-09-17T17:13:30.748Z,98504.09
2023-09-17T17:18:33.251Z,98504.06
2023-09-17T17:23:35.809Z,98502.16
2023-09-17T17:28:38.028Z,98506.53
2023-09-17T17:33:41.179Z,98505.72
2023-09-17T17:38:44.280Z,98503.88
2023-09-17T17:43:46.728Z,98515.03
2023-09-17T17:48:50.816Z,98515.09
2023-09-17T17:53:53.467Z,98508.16
2023-09-17T17:58:56.325Z,98518.41
2023-09-17T18:03:58.714Z,98529.50
2023-09-17T18:09:01.898Z,98528.13
2023-09-17T18:14:04.733Z,98534.97
2023-09-17T18:19:07.573Z,98544.44
2023-09-17T18:24:11.692Z,98544.78
2023-09-17T18:29:14.673Z,98544.81
2023-09-17T18:34:17.357Z,98548.31
2023-09-17T18:39:20.647Z,98552.75
2023-09-17T18:44:25.047Z,98548.03
2023-09-17T18:49:28.307Z,98552.31
2023-09-17T18:54:32.732Z,98558.56
2023-09-17T18:59:38.483Z,98554.69
2023-09-17T19:04:41.400Z,98556.91
2023-09-17T19:09:44.779Z,98555.28
2023-09-17T19:14:48.347Z,98564.59
2023-09-17T19:19:51.170Z,98564.13
2023-09-17T19:24:56.394Z,98558.38
2023-09-17T19:29:59.361Z,98560.34
2023-09-17T19:35:02.181Z,98545.97
2023-09-17T19:40:05.383Z,98556.75
2023-09-17T19:45:11.422Z,98553.72
2023-09-17T19:50:15.636Z,98549.38
2023-09-17T19:55:18.782Z,98546.50
2023-09-17T20:00:21.780Z,98544.03
2023-09-17T20:05:25.311Z,98551.72
2023-09-17T20:10:29.345Z,98550.38
2023-09-17T20:15:31.902Z,98543.94
2023-09-17T20:20:34.149Z,98542.59
2023-09-17T20:25:37.839Z,98544.81
2023-09-17T20:30:40.661Z,98538.88
2023-09-17T20:35:43.075Z,98543.97
2023-09-17T20:40:45.140Z,98555.28
2023-09-17T20:45:47.501Z,98560.03
2023-09-17T20:50:49.838Z,98552.09
2023-09-17T20:55:54.807Z,98549.53
2023-09-17T21:00:56.771Z,98552.06
2023-09-17T21:05:58.604Z,98547.00
2023-09-17T21:11:00.468Z,98544.78
2023-09-17T21:16:02.282Z,98540.91
2023-09-17T21:21:04.321Z,98539.06
2023-09-17T21:26:12.301Z,98537.50
2023-09-17T21:31:14.252Z,98547.00
2023-09-17T21:36:16.053Z,98537.88
2023-09-17T21:41:18.187Z,98541.44
2023-09-17T21:46:20.066Z,98549.69
2023-09-17T21:51:21.884Z,98546.16
2023-09-17T21:56:23.708Z,98547.50
2023-09-17T22:01:26.424Z,98545.16
2023-09-17T22:06:28.250Z,98546.66
2023-09-17T22:11:30.183Z,98543.34
2023-09-17T22:16:36.661Z,98540.94
2023-09-17T22:21:38.540Z,98530.94
2023-09-17T22:26:40.348Z,98529.22
2023-09-17T22:31:42.095Z,98537.50
2023-09-17T22:36:44.285Z,98533.97
2023-09-17T22:41:46.029Z,98531.72
2023-09-17T22:46:47.756Z,98541.94
2023-09-17T22:51:49.543Z,98543.97
2023-09-17T22:56:52.602Z,98541.97
2023-09-17T23:01:54.598Z,98547.72
2023-09-17T23:06:56.399Z,98544.53
2023-09-17T23:11:58.103Z,98537.25
2023-09-17T23:16:59.916Z,98541.13
2023-09-17T23:22:01.792Z,98531.16
2023-09-17T23:27:03.959Z,98526.38
2023-09-17T23:32:06.235Z,98510.59
2023-09-17T23:37:08.371Z,98528.56
2023-09-17T23:42:11.871Z,98532.22
2023-09-17T23:47:13.751Z,98517.22
2023-09-17T23:52:15.643Z,98521.16
2023-09-17T23:57:17.684Z,98519.13
